createdAt,value
2017-08-27T00:00:21.919Z,20.50
2017-08-27T00:02:49.418Z,20.50
2017-08-27T00:05:24.408Z,20.40
2017-08-27T00:07:51.891Z,20.40
2017-08-27T00:10:19.432Z,20.40
2017-08-27T00:12:47.712Z,20.40
2017-08-27T00:15:23.676Z,20.40
2017-08-27T00:17:55.014Z,20.40
2017-08-27T00:20:22.510Z,20.40
2017-08-27T00:22:50.305Z,20.40
2017-08-27T00:25:23.741Z,20.40
2017-08-27T00:27:51.503Z,20.30
2017-08-27T00:30:18.995Z,20.30
2017-08-27T00:32:46.526Z,20.30
2017-08-27T00:35:14.899Z,20.20
2017-08-27T00:37:43.914Z,20.20
2017-08-27T00:40:14.499Z,20.20
2017-08-27T00:42:42.016Z,20.20
2017-08-27T00:45:09.802Z,20.20
2017-08-27T00:47:44.293Z,20.20
2017-08-27T00:50:12.101Z,20.20
2017-08-27T00:52:45.678Z,20.20
2017-08-27T00:55:13.520Z,20.10
2017-08-27T00:57:44.218Z,20.10
2017-08-27T01:00:11.814Z,20.10
2017-08-27T01:02:45.891Z,20.10
2017-08-27T01:05:14.809Z,20.10
2017-08-27T01:07:42.690Z,20.00
2017-08-27T01:10:10.241Z,20.00
2017-08-27T01:12:37.782Z,20.00
2017-08-27T01:15:05.287Z,20.00
2017-08-27T01:17:34.458Z,20.00
2017-08-27T01:20:05.285Z,20.00
2017-08-27T01:22:34.633Z,19.90
2017-08-27T01:25:05.720Z,19.90
2017-08-27T01:27:33.310Z,19.90
2017-08-27T01:30:06.848Z,19.80
2017-08-27T01:32:34.330Z,19.90
2017-08-27T01:35:01.900Z,19.90
2017-08-27T01:37:35.924Z,19.90
2017-08-27T01:40:04.759Z,19.90
2017-08-27T01:42:35.407Z,19.80
2017-08-27T01:45:05.811Z,19.80
2017-08-27T01:47:34.463Z,19.70
2017-08-27T01:50:01.960Z,19.60
2017-08-27T01:52:29.767Z,19.60
2017-08-27T01:54:58.033Z,19.60
2017-08-27T01:57:35.785Z,19.50
2017-08-27T02:00:03.296Z,19.50
2017-08-27T02:02:34.031Z,19.40
2017-08-27T02:05:01.536Z,19.40
2017-08-27T02:07:29.055Z,19.40
2017-08-27T02:10:04.171Z,19.40
2017-08-27T02:12:31.676Z,19.40
2017-08-27T02:15:05.821Z,19.40
2017-08-27T02:17:33.314Z,19.50
2017-08-27T02:20:04.122Z,19.50
2017-08-27T02:22:34.771Z,19.60
2017-08-27T02:25:02.263Z,19.60
2017-08-27T02:27:30.044Z,19.60
2017-08-27T02:29:57.544Z,19.60
2017-08-27T02:32:35.601Z,19.60
2017-08-27T02:35:04.148Z,19.60
2017-08-27T02:37:31.732Z,19.60
2017-08-27T02:39:59.288Z,19.60
2017-08-27T02:42:26.846Z,19.50
2017-08-27T02:45:05.264Z,19.50
2017-08-27T02:47:32.802Z,19.40
2017-08-27T02:50:00.300Z,19.50
2017-08-27T02:52:33.820Z,19.50
2017-08-27T02:55:01.302Z,19.50
2017-08-27T02:57:35.153Z,19.40
2017-08-27T03:00:02.658Z,19.40
2017-08-27T03:02:36.488Z,19.30
2017-08-27T03:05:03.982Z,19.20
2017-08-27T03:07:31.523Z,19.20
2017-08-27T03:10:05.437Z,19.20
2017-08-27T03:12:32.929Z,19.20
2017-08-27T03:15:00.460Z,19.20
2017-08-27T03:17:34.200Z,19.20
2017-08-27T03:20:04.958Z,19.20
2017-08-27T03:22:32.540Z,19.20
2017-08-27T03:25:00.791Z,19.20
2017-08-27T03:27:28.587Z,19.10
2017-08-27T03:30:04.474Z,19.20
2017-08-27T03:32:32.328Z,19.20
2017-08-27T03:34:59.871Z,19.20
2017-08-27T03:37:27.372Z,19.10
2017-08-27T03:40:05.063Z,19.10
2017-08-27T03:42:32.551Z,19.00
2017-08-27T03:45:00.367Z,19.00
2017-08-27T03:47:27.862Z,19.00
2017-08-27T03:50:05.328Z,19.00
2017-08-27T03:52:35.956Z,19.00
2017-08-27T03:55:03.496Z,18.90
2017-08-27T03:57:31.355Z,18.90
2017-08-27T03:59:58.948Z,18.80
2017-08-27T04:02:34.357Z,18.80
2017-08-27T04:05:04.874Z,18.80
2017-08-27T04:07:32.373Z,18.80
2017-08-27T04:10:05.969Z,18.90
2017-08-27T04:12:33.472Z,18.90
2017-08-27T04:15:01.280Z,18.90
2017-08-27T04:17:28.768Z,18.90
2017-08-27T04:19:56.254Z,18.90
2017-08-27T04:22:24.671Z,18.90
2017-08-27T04:24:53.984Z,18.90
2017-08-27T04:27:24.919Z,18.90
2017-08-27T04:29:52.403Z,18.90
2017-08-27T04:32:19.926Z,18.90
2017-08-27T04:34:47.435Z,18.90
2017-08-27T04:37:24.776Z,18.90
2017-08-27T04:39:52.344Z,18.90
2017-08-27T04:42:26.382Z,18.90
2017-08-27T04:44:54.167Z,18.90
2017-08-27T04:47:24.908Z,18.90
2017-08-27T04:49:56.013Z,18.90
2017-08-27T04:52:23.498Z,19.00
2017-08-27T04:54:50.981Z,19.00
2017-08-27T04:57:18.492Z,19.00
2017-08-27T04:59:54.634Z,19.10
2017-08-27T05:02:22.202Z,19.00
2017-08-27T05:04:49.760Z,19.10
2017-08-27T05:07:17.625Z,19.10
2017-08-27T05:09:45.110Z,19.10
2017-08-27T05:12:14.153Z,19.10
2017-08-27T05:14:42.761Z,19.20
2017-08-27T05:17:10.314Z,19.10
2017-08-27T05:19:44.290Z,19.20
2017-08-27T05:22:11.782Z,19.20
2017-08-27T05:24:39.278Z,19.30
2017-08-27T05:27:07.650Z,19.30
2017-08-27T05:29:35.143Z,19.20
2017-08-27T05:32:03.069Z,19.30
2017-08-27T05:34:30.550Z,19.40
2017-08-27T05:36:58.029Z,19.40
2017-08-27T05:39:25.856Z,19.40
2017-08-27T05:41:53.416Z,19.50
2017-08-27T05:44:20.914Z,19.50
2017-08-27T05:46:54.396Z,19.50
2017-08-27T05:49:22.031Z,19.50
2017-08-27T05:51:49.875Z,19.50
2017-08-27T05:54:24.203Z,19.60
2017-08-27T05:56:52.189Z,19.60
2017-08-27T05:59:25.868Z,19.60
2017-08-27T06:01:55.067Z,19.70
2017-08-27T06:04:25.554Z,19.70
2017-08-27T06:06:54.175Z,19.80
2017-08-27T06:09:25.428Z,19.80
2017-08-27T06:11:53.699Z,20.00
2017-08-27T06:14:21.563Z,19.90
2017-08-27T06:16:55.266Z,20.00
2017-08-27T06:19:23.152Z,20.10
2017-08-27T06:21:53.991Z,20.10
2017-08-27T06:24:24.815Z,20.20
2017-08-27T06:26:52.305Z,20.30
2017-08-27T06:29:19.823Z,20.30
2017-08-27T06:31:47.691Z,20.40
2017-08-27T06:34:15.261Z,20.50
2017-08-27T06:36:43.964Z,20.50
2017-08-27T06:39:14.896Z,20.60
2017-08-27T06:41:45.359Z,20.60
2017-08-27T06:44:14.036Z,20.70
2017-08-27T06:46:45.799Z,20.70
2017-08-27T06:49:13.303Z,20.70
2017-08-27T06:51:40.905Z,20.80
2017-08-27T06:54:14.163Z,20.90
2017-08-27T06:56:42.408Z,21.00
2017-08-27T06:59:10.449Z,21.10
2017-08-27T07:01:44.288Z,21.20
2017-08-27T07:04:12.478Z,21.40
2017-08-27T07:06:45.904Z,21.50
2017-08-27T07:09:15.410Z,21.70
2017-08-27T07:11:43.710Z,21.90
2017-08-27T07:14:16.224Z,21.90
2017-08-27T07:16:44.660Z,22.00
2017-08-27T07:19:17.698Z,22.10
2017-08-27T07:21:55.554Z,22.10
2017-08-27T07:24:24.393Z,22.10
2017-08-27T07:26:52.308Z,22.20
2017-08-27T07:29:19.925Z,22.20
2017-08-27T07:31:50.355Z,22.20
2017-08-27T07:34:24.918Z,22.20
2017-08-27T07:36:56.622Z,22.30
2017-08-27T07:39:24.167Z,22.40
2017-08-27T07:41:51.847Z,22.40
2017-08-27T07:44:27.857Z,22.50
2017-08-27T07:46:57.322Z,22.70
2017-08-27T07:49:24.933Z,22.70
2017-08-27T07:51:52.460Z,22.80
2017-08-27T07:54:26.538Z,23.00
2017-08-27T07:57:03.826Z,23.10
2017-08-27T07:59:35.233Z,23.10
2017-08-27T08:02:04.388Z,23.10
2017-08-27T08:04:34.089Z,23.30
2017-08-27T08:07:05.059Z,23.20
2017-08-27T08:09:32.552Z,23.30
2017-08-27T08:12:00.053Z,23.40
2017-08-27T08:14:28.640Z,23.70
2017-08-27T08:17:04.526Z,23.90
2017-08-27T08:19:35.969Z,23.90
2017-08-27T08:22:04.106Z,24.10
2017-08-27T08:24:35.276Z,24.10
2017-08-27T08:27:04.604Z,24.30
2017-08-27T08:29:32.092Z,24.60
2017-08-27T08:31:59.588Z,24.90
2017-08-27T08:34:34.437Z,25.60
2017-08-27T08:37:02.301Z,25.50
2017-08-27T08:39:36.200Z,26.10
2017-08-27T08:42:04.071Z,26.90
2017-08-27T08:44:35.692Z,28.40
2017-08-27T08:47:03.199Z,28.30
2017-08-27T08:49:34.330Z,28.00
2017-08-27T08:52:04.757Z,27.70
2017-08-27T08:54:35.738Z,27.40
2017-08-27T08:57:04.263Z,27.10
2017-08-27T08:59:32.527Z,26.80
2017-08-27T09:02:06.748Z,26.70
2017-08-27T09:04:44.292Z,27.00
2017-08-27T09:07:15.711Z,27.60
2017-08-27T09:09:43.963Z,29.40
2017-08-27T09:12:11.468Z,29.40
2017-08-27T09:14:45.006Z,30.20
2017-08-27T09:17:15.832Z,30.90
2017-08-27T09:19:43.314Z,31.50
2017-08-27T09:22:11.219Z,32.20
2017-08-27T09:24:38.711Z,32.60
2017-08-27T09:27:14.054Z,32.20
2017-08-27T09:29:41.599Z,31.60
2017-08-27T09:32:15.696Z,30.90
2017-08-27T09:34:44.312Z,30.30
2017-08-27T09:37:11.800Z,29.80
2017-08-27T09:39:39.575Z,29.20
2017-08-27T09:42:07.055Z,28.80
2017-08-27T09:44:44.696Z,28.70
2017-08-27T09:47:12.183Z,28.60
2017-08-27T09:49:40.472Z,28.20
2017-08-27T09:52:15.032Z,28.00
2017-08-27T09:54:42.543Z,27.90
2017-08-27T09:57:16.648Z,27.70
2017-08-27T09:59:44.144Z,27.60
2017-08-27T10:02:15.309Z,27.60
2017-08-27T10:04:44.239Z,27.50
2017-08-27T10:07:14.728Z,27.40
2017-08-27T10:09:42.238Z,27.50
2017-08-27T10:12:09.747Z,27.40
2017-08-27T10:14:37.711Z,27.40
2017-08-27T10:17:15.299Z,27.40
2017-08-27T10:19:44.573Z,27.50
2017-08-27T10:22:14.979Z,27.60
2017-08-27T10:24:42.493Z,27.60
2017-08-27T10:27:10.777Z,27.60
2017-08-27T10:29:38.289Z,27.60
2017-08-27T10:32:13.900Z,27.60
2017-08-27T10:34:41.400Z,27.60
2017-08-27T10:37:08.958Z,27.70
2017-08-27T10:39:36.801Z,27.70
2017-08-27T10:42:04.292Z,27.70
2017-08-27T10:44:31.794Z,27.60
2017-08-27T10:47:05.445Z,27.60
2017-08-27T10:49:34.692Z,27.70
2017-08-27T10:52:02.184Z,27.70
2017-08-27T10:54:29.738Z,27.80
2017-08-27T10:57:03.819Z,27.90
2017-08-27T10:59:31.615Z,27.90
2017-08-27T11:02:06.220Z,27.80
2017-08-27T11:04:34.134Z,27.80
2017-08-27T11:07:04.629Z,27.90
2017-08-27T11:09:32.127Z,28.10
2017-08-27T11:12:05.838Z,28.30
2017-08-27T11:14:34.871Z,28.70
2017-08-27T11:17:04.270Z,30.40
2017-08-27T11:19:31.786Z,30.30
2017-08-27T11:22:05.540Z,31.60
2017-08-27T11:24:33.037Z,32.50
2017-08-27T11:27:03.955Z,32.60
2017-08-27T11:29:31.462Z,33.00
2017-08-27T11:31:58.951Z,33.30
2017-08-27T11:34:33.780Z,34.00
2017-08-27T11:37:04.787Z,34.80
2017-08-27T11:39:32.555Z,35.50
2017-08-27T11:42:00.102Z,36.00
2017-08-27T11:44:34.265Z,36.80
2017-08-27T11:47:01.753Z,36.80
2017-08-27T11:49:30.011Z,36.80
2017-08-27T11:51:57.803Z,36.80
2017-08-27T11:54:25.290Z,36.70
2017-08-27T11:56:52.782Z,36.20
2017-08-27T11:59:24.407Z,36.50
2017-08-27T12:01:51.927Z,36.50
2017-08-27T12:04:19.420Z,37.10
2017-08-27T12:06:53.762Z,37.30
2017-08-27T12:09:21.260Z,37.40
2017-08-27T12:11:48.795Z,37.70
2017-08-27T12:14:16.315Z,38.00
2017-08-27T12:16:44.133Z,38.10
2017-08-27T12:19:14.856Z,37.80
2017-08-27T12:21:45.572Z,36.50
2017-08-27T12:24:13.339Z,35.10
2017-08-27T12:26:40.844Z,34.10
2017-08-27T12:29:08.351Z,33.60
2017-08-27T12:31:44.160Z,33.30
2017-08-27T12:34:11.667Z,33.40
2017-08-27T12:36:39.487Z,33.40
2017-08-27T12:39:06.984Z,33.50
2017-08-27T12:41:44.453Z,33.50
2017-08-27T12:44:11.974Z,33.70
2017-08-27T12:46:40.231Z,34.20
2017-08-27T12:49:14.551Z,34.20
2017-08-27T12:51:45.368Z,34.20
2017-08-27T12:54:14.415Z,34.20
2017-08-27T12:56:44.943Z,34.00
2017-08-27T12:59:15.903Z,34.00
2017-08-27T13:01:44.207Z,34.00
2017-08-27T13:04:15.310Z,33.90
2017-08-27T13:06:42.807Z,34.20
2017-08-27T13:09:10.364Z,34.40
2017-08-27T13:11:44.300Z,34.50
2017-08-27T13:14:11.876Z,34.30
2017-08-27T13:16:40.149Z,34.30
2017-08-27T13:19:14.785Z,34.30
2017-08-27T13:21:45.415Z,34.60
2017-08-27T13:24:12.904Z,34.50
2017-08-27T13:26:46.434Z,34.40
2017-08-27T13:29:14.237Z,34.00
2017-08-27T13:31:44.190Z,33.20
2017-08-27T13:34:15.212Z,33.10
2017-08-27T13:36:42.700Z,32.80
2017-08-27T13:39:16.838Z,32.50
2017-08-27T13:41:44.476Z,32.30
2017-08-27T13:44:11.977Z,32.00
2017-08-27T13:46:44.382Z,31.70
2017-08-27T13:49:11.944Z,31.60
2017-08-27T13:51:39.497Z,31.50
2017-08-27T13:54:14.132Z,31.40
2017-08-27T13:56:41.631Z,31.20
2017-08-27T13:59:09.129Z,31.10
2017-08-27T14:01:37.021Z,31.10
2017-08-27T14:04:04.504Z,31.00
2017-08-27T14:06:35.659Z,30.90
2017-08-27T14:09:03.424Z,30.70
2017-08-27T14:11:30.938Z,30.60
2017-08-27T14:13:58.462Z,30.50
2017-08-27T14:16:26.746Z,30.40
2017-08-27T14:18:55.000Z,30.50
2017-08-27T14:21:22.540Z,30.50
2017-08-27T14:23:55.936Z,30.70
2017-08-27T14:26:25.139Z,31.10
2017-08-27T14:28:53.645Z,31.20
2017-08-27T14:31:24.287Z,31.40
2017-08-27T14:33:54.996Z,31.50
2017-08-27T14:36:25.838Z,31.30
2017-08-27T14:38:54.171Z,31.10
2017-08-27T14:41:21.668Z,31.10
2017-08-27T14:43:49.170Z,31.20
2017-08-27T14:46:23.927Z,31.50
2017-08-27T14:48:51.763Z,31.70
2017-08-27T14:51:25.399Z,31.90
2017-08-27T14:53:53.200Z,32.00
2017-08-27T14:56:24.518Z,32.00
2017-08-27T14:58:55.514Z,31.80
2017-08-27T15:01:24.013Z,31.60
2017-08-27T15:03:55.039Z,31.20
2017-08-27T15:06:24.467Z,30.80
2017-08-27T15:08:51.971Z,30.60
2017-08-27T15:11:19.489Z,30.40
2017-08-27T15:13:53.876Z,30.20
2017-08-27T15:16:24.890Z,30.10
2017-08-27T15:18:55.522Z,30.10
2017-08-27T15:21:23.047Z,30.10
2017-08-27T15:23:56.513Z,30.00
2017-08-27T15:26:24.778Z,29.80
2017-08-27T15:28:52.271Z,29.80
2017-08-27T15:31:20.061Z,29.70
2017-08-27T15:33:54.300Z,29.50
2017-08-27T15:36:21.812Z,29.40
2017-08-27T15:38:50.116Z,29.10
2017-08-27T15:41:24.519Z,29.00
2017-08-27T15:43:55.090Z,28.90
2017-08-27T15:46:26.140Z,28.70
2017-08-27T15:48:54.479Z,28.60
2017-08-27T15:51:21.976Z,28.60
2017-08-27T15:53:56.096Z,28.60
2017-08-27T15:56:23.590Z,28.50
2017-08-27T15:58:54.260Z,28.50
2017-08-27T16:01:24.957Z,28.70
2017-08-27T16:03:55.520Z,28.90
2017-08-27T16:06:23.285Z,29.00
2017-08-27T16:08:50.787Z,29.00
2017-08-27T16:11:24.724Z,28.90
2017-08-27T16:13:55.551Z,28.90
2017-08-27T16:16:23.057Z,28.70
2017-08-27T16:18:50.564Z,28.40
2017-08-27T16:21:18.062Z,28.20
2017-08-27T16:23:53.675Z,28.00
2017-08-27T16:26:21.175Z,27.90
2017-08-27T16:28:48.667Z,27.80
2017-08-27T16:31:16.170Z,27.80
2017-08-27T16:33:44.387Z,27.70
2017-08-27T16:36:15.202Z,27.70
2017-08-27T16:38:42.695Z,27.60
2017-08-27T16:41:10.216Z,27.50
2017-08-27T16:43:37.703Z,27.40
2017-08-27T16:46:14.386Z,27.30
2017-08-27T16:48:42.649Z,27.20
2017-08-27T16:51:11.232Z,27.10
2017-08-27T16:53:38.719Z,27.10
2017-08-27T16:56:13.980Z,27.10
2017-08-27T16:58:41.501Z,27.10
2017-08-27T17:01:08.991Z,27.10
2017-08-27T17:03:44.060Z,27.00
2017-08-27T17:06:14.692Z,26.90
2017-08-27T17:08:42.179Z,26.80
2017-08-27T17:11:09.674Z,26.80
2017-08-27T17:13:37.163Z,26.70
2017-08-27T17:16:14.559Z,26.70
2017-08-27T17:18:42.081Z,26.60
2017-08-27T17:21:15.265Z,26.60
2017-08-27T17:23:44.191Z,26.60
2017-08-27T17:26:11.959Z,26.50
2017-08-27T17:28:39.449Z,26.40
2017-08-27T17:31:06.954Z,26.40
2017-08-27T17:33:44.933Z,26.30
2017-08-27T17:36:12.441Z,26.20
2017-08-27T17:38:46.195Z,26.20
2017-08-27T17:41:13.695Z,26.10
2017-08-27T17:43:45.419Z,26.10
2017-08-27T17:46:13.026Z,26.00
2017-08-27T17:48:46.551Z,26.00
2017-08-27T17:51:14.175Z,25.90
2017-08-27T17:53:44.900Z,25.80
2017-08-27T17:56:12.400Z,25.70
2017-08-27T17:58:39.878Z,25.70
2017-08-27T18:01:14.516Z,25.60
2017-08-27T18:03:42.017Z,25.50
2017-08-27T18:06:15.685Z,25.50
2017-08-27T18:08:43.199Z,25.50
2017-08-27T18:11:14.136Z,25.40
2017-08-27T18:13:41.744Z,25.40
2017-08-27T18:16:09.225Z,25.30
2017-08-27T18:18:36.983Z,25.30
2017-08-27T18:21:14.180Z,25.10
2017-08-27T18:23:41.991Z,25.10
2017-08-27T18:26:10.261Z,24.90
2017-08-27T18:28:44.269Z,24.90
2017-08-27T18:31:11.873Z,24.90
2017-08-27T18:33:45.494Z,24.90
2017-08-27T18:36:12.980Z,24.80
2017-08-27T18:38:44.082Z,24.80
2017-08-27T18:41:11.586Z,24.70
2017-08-27T18:43:45.327Z,24.60
2017-08-27T18:46:14.079Z,24.60
2017-08-27T18:48:44.889Z,24.50
2017-08-27T18:51:12.662Z,24.50
2017-08-27T18:53:45.959Z,24.50
2017-08-27T18:56:15.088Z,24.40
2017-08-27T18:58:43.453Z,24.40
2017-08-27T19:01:10.960Z,24.30
2017-08-27T19:03:38.814Z,24.30
2017-08-27T19:06:06.303Z,24.30
2017-08-27T19:08:33.792Z,24.30
2017-08-27T19:11:01.300Z,24.30
2017-08-27T19:13:28.802Z,24.30
2017-08-27T19:16:03.856Z,24.20
2017-08-27T19:18:35.689Z,24.20
2017-08-27T19:21:05.041Z,24.20
2017-08-27T19:23:32.538Z,24.20
2017-08-27T19:26:00.061Z,24.20
2017-08-27T19:28:27.591Z,24.20
2017-08-27T19:30:55.846Z,24.20
2017-08-27T19:33:25.075Z,24.00
2017-08-27T19:35:54.411Z,24.20
2017-08-27T19:38:21.904Z,24.20
2017-08-27T19:40:55.621Z,24.10
2017-08-27T19:43:24.519Z,24.10
2017-08-27T19:45:52.024Z,24.10
2017-08-27T19:48:19.507Z,24.10
2017-08-27T19:50:47.307Z,24.00
2017-08-27T19:53:25.116Z,24.00
2017-08-27T19:55:53.059Z,23.90
2017-08-27T19:58:20.542Z,23.90
2017-08-27T20:00:54.526Z,23.90
2017-08-27T20:03:22.019Z,23.90
2017-08-27T20:05:55.979Z,23.80
2017-08-27T20:08:23.460Z,23.80
2017-08-27T20:10:54.367Z,23.70
2017-08-27T20:13:25.361Z,23.60
2017-08-27T20:15:52.846Z,23.60
2017-08-27T20:18:26.608Z,23.60
2017-08-27T20:21:03.871Z,23.60
2017-08-27T20:23:31.686Z,23.60
2017-08-27T20:25:59.167Z,23.50
2017-08-27T20:28:26.658Z,23.50
2017-08-27T20:30:54.150Z,23.50
2017-08-27T20:33:21.656Z,23.50
2017-08-27T20:35:49.174Z,23.50
2017-08-27T20:38:16.672Z,23.40
2017-08-27T20:40:44.427Z,23.40
2017-08-27T20:43:11.908Z,23.40
2017-08-27T20:45:39.400Z,23.40
2017-08-27T20:48:14.394Z,23.40
2017-08-27T20:50:41.883Z,23.30
2017-08-27T20:53:15.746Z,23.30
2017-08-27T20:55:43.239Z,23.30
2017-08-27T20:58:11.040Z,23.30
2017-08-27T21:00:38.549Z,23.30
2017-08-27T21:03:14.467Z,23.30
2017-08-27T21:05:45.126Z,23.20
2017-08-27T21:08:12.609Z,23.20
2017-08-27T21:10:40.099Z,23.20
2017-08-27T21:13:07.575Z,23.20
2017-08-27T21:15:45.100Z,23.20
2017-08-27T21:18:15.826Z,23.20
2017-08-27T21:20:43.320Z,23.20
2017-08-27T21:23:14.786Z,23.20
2017-08-27T21:25:42.343Z,23.10
2017-08-27T21:28:16.724Z,23.10
2017-08-27T21:30:54.171Z,23.10
2017-08-27T21:33:22.032Z,23.10
2017-08-27T21:35:55.635Z,23.10
2017-08-27T21:38:24.725Z,23.00
2017-08-27T21:40:54.034Z,23.00
2017-08-27T21:43:25.080Z,22.90
2017-08-27T21:45:52.685Z,22.80
2017-08-27T21:48:26.539Z,22.80
2017-08-27T21:51:03.919Z,22.70
2017-08-27T21:53:31.797Z,22.70
2017-08-27T21:56:05.390Z,22.60
2017-08-27T21:58:33.256Z,22.50
2017-08-27T22:01:04.051Z,22.50
2017-08-27T22:03:35.059Z,22.40
2017-08-27T22:06:04.284Z,22.50
2017-08-27T22:08:31.979Z,22.40
2017-08-27T22:10:59.546Z,22.40
2017-08-27T22:13:27.247Z,22.30
2017-08-27T22:15:55.012Z,22.30
2017-08-27T22:18:23.312Z,22.30
2017-08-27T22:20:50.820Z,22.20
2017-08-27T22:23:24.787Z,22.20
2017-08-27T22:25:52.350Z,22.20
2017-08-27T22:28:26.368Z,22.10
2017-08-27T22:30:54.224Z,22.10
2017-08-27T22:33:22.101Z,22.10
2017-08-27T22:35:55.591Z,22.00
2017-08-27T22:38:23.469Z,22.00
2017-08-27T22:40:50.959Z,21.90
2017-08-27T22:43:19.639Z,21.80
2017-08-27T22:45:47.325Z,21.70
2017-08-27T22:48:14.818Z,21.70
2017-08-27T22:50:43.353Z,21.60
2017-08-27T22:53:10.864Z,21.60
2017-08-27T22:55:39.268Z,21.60
2017-08-27T22:58:06.767Z,21.50
2017-08-27T23:00:44.016Z,21.60
2017-08-27T23:03:11.791Z,21.50
2017-08-27T23:05:39.273Z,21.50
2017-08-27T23:08:06.883Z,21.50
2017-08-27T23:10:44.506Z,21.40
2017-08-27T23:13:15.510Z,21.40
2017-08-27T23:15:43.808Z,21.20
2017-08-27T23:18:11.291Z,21.10
2017-08-27T23:20:45.550Z,21.10
2017-08-27T23:23:13.151Z,21.00
2017-08-27T23:25:40.644Z,21.00
2017-08-27T23:28:14.108Z,20.80
2017-08-27T23:30:41.669Z,20.80
2017-08-27T23:33:09.195Z,20.70
2017-08-27T23:35:36.693Z,20.60
2017-08-27T23:38:14.272Z,20.60
2017-08-27T23:40:45.079Z,20.60
2017-08-27T23:43:14.494Z,20.50
2017-08-27T23:45:42.055Z,20.50
2017-08-27T23:48:15.900Z,20.40
2017-08-27T23:50:43.430Z,20.40
2017-08-27T23:53:10.982Z,20.40
2017-08-27T23:55:44.886Z,20.40
2017-08-27T23:58:12.399Z,20.40
